Historyczne dane pomiarowe

Dodano dane terminowe – wersja testowa.

Dane z okresu 1951-2019

Wersja bazy: 1.34 [2019-03-16, lista zmian], aktualizacja planowana na 2019-04-15

Dane meteo z obszaru Polski uzyskane na podstawie danych udostępnionych przez Instytut Meteorologii i Gospodarki Wodnej – Państwowy Instytut Badawczy.

 

Wybierz Datę:    

       

TemperaturaWilgotnośćWiatrCiśnienieOpadyŚniegCzas trwania zjawisk
 Stacja t tx tn tng RH VA  wxwx mslp ppp RRR   cm mm wxwxwxwxwxwxwx
1999-08-14 15.8 22.0 11.1 10.2 64.8- 2.7 1.0---- 0.0------------
1999-08-13 16.5 22.1 12.2 11.0 64.8- 5.3 1.0---- 0.0------------
1999-08-12 16.6 19.5 14.5 14.5 76.0- 7.3 1.3---- 0.0------------
1999-08-11 20.5 25.2 17.6 16.2 73.8- 4.7 1.7---- 5.2------------
1999-08-10 21.3 29.5 16.5 15.6 84.3- 6.3 1.0---- 3.7------------
1999-08-09 23.0 32.5 16.6 15.0 72.3- 2.3 1.0---- 5.0------------
1999-08-08 23.5 29.8 18.5 17.6 70.0- 3.3 2.0---- 0.0------------
1999-08-07 22.1 30.5 14.7 13.5 68.8- 3.3 1.3---- 0.0------------
1999-08-06 21.9 28.5 16.9 16.3 75.3- 5.7 1.3---- 0.0------------
1999-08-05 19.3 27.4 12.1 10.5 67.0- 3.7 1.0---- 1.7------------
1999-08-04 18.2 26.0 11.3 9.7 65.5- 0.7 1.3---- 0.0------------
1999-08-03 17.5 23.0 12.1 10.4 73.0- 6.0 0.7---- 0.0------------
1999-08-02 17.3 22.0 13.5 12.2 73.5- 7.0 0.7---- 0.5------------
1999-08-01 18.0 24.1 13.5 12.6 69.0- 5.0 1.0---- 0.6------------
1999-07-31 18.7 26.2 12.1 10.9 54.0- 3.0 1.3---- 0.0------------
1999-07-30 18.9 26.2 12.2 10.8 58.8- 1.7 1.7---- 0.0------------
1999-07-29 18.9 25.2 13.5 12.4 65.8- 3.3 2.3---- 0.0------------
1999-07-28 20.4 26.7 16.0 15.5 64.0- 1.3 1.3---- 1.6------------
1999-07-27 20.2 23.8 17.8 17.1 83.8- 6.7 1.7---- 0.0------------
1999-07-26 21.2 28.4 14.5 13.6 74.3- 5.0 1.3---- 0.0------------
1999-07-25 18.9 25.3 12.8 11.8 71.3- 4.7 0.7---- 0.0------------
1999-07-24 17.2 20.7 13.2 13.0 82.8- 7.3 0.3---- 0.0------------
1999-07-23 16.1 20.4 13.7 13.7 91.5- 7.7 1.0---- 7.8------------
1999-07-22 20.8 25.0 17.7 17.1 66.0- 6.3 1.3---- 7.1------------
1999-07-21 22.9 29.2 18.1 17.0 65.0- 5.0 2.0---- 0.0------------
1999-07-20 22.4 30.1 14.7 13.5 58.5- 0.7 0.3---- 0.0------------
1999-07-19 20.6 28.9 12.4 11.4 56.0- 2.7 0.3---- 0.0------------
1999-07-18 18.8 26.5 11.6 10.2 62.5- 2.0 1.3---- 0.0------------
1999-07-17 18.2 23.7 13.3 12.2 68.0- 1.7 1.7---- 0.0------------
1999-07-16 18.0 22.6 14.4 13.2 67.5- 6.0 2.0---- 0.0------------
1999-07-15 18.2 22.6 15.6 15.3 70.0- 5.0 2.0---- 0.0------------
1999-07-14 21.2 27.0 17.5 17.5 83.8- 7.3 1.3---- 3.3------------
1999-07-13 21.7 26.5 18.0 17.1 83.5- 6.0 0.7---- 5.2------------
1999-07-12 21.2 27.4 16.0 15.1 80.0- 5.7 2.0---- 0.8------------
1999-07-11 19.2 22.0 16.0 15.6 80.3- 7.3 2.7---- 6.9------------
1999-07-10 20.6 23.9 18.0 18.0 75.3- 7.7 3.3---- 0.0------------
1999-07-09 20.0 22.5 17.2 17.2 91.0- 7.3 1.7---- 0.0------------
1999-07-08 19.2 22.3 17.6 17.6 93.0- 8.0 1.3---- 14.6------------
1999-07-07 23.8 29.4 21.1 20.3 78.0- 7.3 1.3---- 24.9------------
1999-07-06 25.8 34.0 18.0 16.6 58.5- 1.0 1.0---- 0.0------------
1999-07-05 25.1 33.0 17.0 15.6 61.5- 0.7 1.7---- 0.0------------
1999-07-04 23.0 32.2 14.6 13.5 65.5- 0.7 1.0---- 0.0------------
1999-07-03 21.4 27.6 16.1 15.3 72.0- 2.3 1.3---- 0.0------------
1999-07-02 21.0 26.3 16.5 16.1 74.5- 5.3 2.0---- 7.2------------
1999-07-01 20.7 26.4 14.8 13.2 70.0- 5.3 1.0---- 1.1------------
1999-06-30 20.7 26.9 15.3 14.0 70.5- 4.0 1.3---- 0.0------------
1999-06-29 20.6 26.4 16.0 15.1 62.0- 5.0 2.0---- 0.0------------
1999-06-28 20.4 29.2 14.3 13.0 67.8- 3.7 1.0---- 0.3------------
1999-06-27 19.9 28.2 11.6 9.8 66.3- 1.3 2.7---- 0.0------------
1999-06-26 16.9 25.3 9.2 7.6 72.0- 1.0 1.3---- 0.0------------
1999-06-25 13.7 20.0 7.3 6.1 72.3- 2.0 1.3---- 0.0------------
1999-06-24 13.1 15.4 10.2 10.2 74.0- 7.3 1.0---- 0.0------------
1999-06-23 10.1 11.9 8.2 8.2 94.3- 8.0 2.0---- 2.6------------
1999-06-22 11.8 17.5 9.1 9.0 95.5- 8.0 3.3---- 42.1------------
1999-06-21 19.5 24.3 17.0 16.1 87.3- 7.7 1.0---- 43.4------------
1999-06-20 18.8 23.3 15.2 14.6 80.8- 7.0 0.3---- 0.8------------
1999-06-19 15.9 18.1 14.5 14.4 88.0- 8.0 1.7---- 0.0------------
1999-06-18 18.3 22.0 16.6 16.5 93.5- 7.7 1.3---- 3.3------------
1999-06-17 18.9 21.5 17.2 17.0 90.3- 7.3 0.7---- 12.3------------
1999-06-16 18.2 21.6 15.8 15.7 92.3- 8.0 0.3---- 0.2------------
395.6 ms

 

Źródłem pochodzenia danych jest Instytut Meteorologii i Gospodarki Wodnej – Państwowy Instytut Badawczy. Dane Instytutu Meteorologii i Gospodarki Wodnej – Państwowego Instytutu Badawczego zostały przetworzone.

Dane źródłowe można odnaleźć na stronie https://dane.imgw.pl